Time;durP1;ratioP1;P1;durP2;ratioP2;P2;SDS_P1;SDS_P2;PMS_P1;PMS_P2;Temp;Humidity;BMP_temperature;BMP_pressure;BME280_temperature;BME280_humidity;BME280_pressure;Samples;Min_cycle;Max_cycle;Signal;HPM_P1;HPM_P2
2022/03/17 00:02:24;;;;;;;0.90;0.77;;;21.90;52.10;;;;;;4969128;28;20217;-90
2022/03/17 00:04:52;;;;;;;0.90;0.70;;;21.90;52.10;;;;;;4967627;29;20920;-90
2022/03/17 00:07:19;;;;;;;0.80;0.70;;;21.90;52.10;;;;;;4967713;29;20835;-91
2022/03/17 00:09:45;;;;;;;1.00;0.73;;;21.90;52.10;;;;;;4968835;28;20425;-90
2022/03/17 00:12:13;;;;;;;0.90;0.60;;;22.00;52.20;;;;;;4971256;28;20414;-90
2022/03/17 00:14:39;;;;;;;0.83;0.70;;;21.90;52.10;;;;;;4970888;28;20452;-90
2022/03/17 00:17:05;;;;;;;1.00;0.80;;;21.90;52.10;;;;;;4988219;28;20460;-91
2022/03/17 00:19:55;;;;;;;0.90;0.80;;;21.90;52.70;;;;;;4969623;28;20270;-91
2022/03/17 00:22:21;;;;;;;0.90;0.70;;;22.00;52.20;;;;;;4976319;28;20600;-91
2022/03/17 00:24:47;;;;;;;0.90;0.70;;;21.90;52.10;;;;;;4993675;28;20526;-91
2022/03/17 00:27:15;;;;;;;1.00;0.70;;;21.90;52.10;;;;;;4993375;28;20280;-92
2022/03/17 00:29:41;;;;;;;0.83;0.60;;;21.90;52.20;;;;;;4972863;29;20209;-92
2022/03/17 00:32:08;;;;;;;0.90;0.70;;;21.90;52.20;;;;;;4956993;29;20414;-91
2022/03/17 00:35:35;;;;;;;0.90;0.77;;;21.90;52.20;;;;;;4972051;28;20181;-92
2022/03/17 00:37:20;;;;;;;0.90;0.70;;;21.90;52.70;;;;;;4973273;28;20472;-91
2022/03/17 00:39:46;;;;;;;1.00;0.90;;;21.90;52.20;;;;;;4973931;28;20915;-91
2022/03/17 00:42:12;;;;;;;0.80;0.70;;;21.90;52.20;;;;;;4976179;28;20420;-92
2022/03/17 00:44:37;;;;;;;1.00;0.90;;;21.90;52.20;;;;;;4993434;28;20191;-92
2022/03/17 00:47:03;;;;;;;0.90;0.70;;;21.90;52.20;;;;;;4993220;28;20185;-91
2022/03/17 00:49:29;;;;;;;0.90;0.77;;;21.90;52.20;;;;;;4993523;28;20182;-91
2022/03/17 00:51:55;;;;;;;1.00;0.70;;;21.90;52.20;;;;;;4974894;28;20420;-89
2022/03/17 00:54:20;;;;;;;1.00;0.80;;;21.90;52.20;;;;;;4975360;28;20276;-90
2022/03/17 00:56:46;;;;;;;0.80;0.60;;;21.90;52.20;;;;;;4975609;28;20205;-89
2022/03/17 00:59:14;;;;;;;0.83;0.70;;;21.90;52.70;;;;;;4975495;28;20204;-89
2022/03/17 01:01:40;;;;;;;1.00;0.80;;;21.90;52.20;;;;;;4975482;28;20194;-90
2022/03/17 01:04:06;;;;;;;0.80;0.60;;;21.90;52.20;;;;;;4992448;28;20528;-89
2022/03/17 01:06:32;;;;;;;0.80;0.70;;;21.90;52.20;;;;;;4975536;28;20185;-89
2022/03/17 01:08:58;;;;;;;0.97;0.80;;;21.90;52.20;;;;;;4975586;28;20452;-89
2022/03/17 01:11:23;;;;;;;0.90;0.73;;;21.90;52.20;;;;;;4974925;28;20200;-89
2022/03/17 01:13:50;;;;;;;1.00;0.70;;;21.90;52.20;;;;;;4975199;28;20224;-89
2022/03/17 01:16:16;;;;;;;1.10;0.80;;;21.90;52.20;;;;;;4990895;28;20181;-90
2022/03/17 01:18:42;;;;;;;0.90;0.70;;;21.90;52.20;;;;;;4975077;28;20436;-89
2022/03/17 01:21:08;;;;;;;1.03;0.80;;;21.90;52.20;;;;;;4992979;28;20177;-90
2022/03/17 01:23:35;;;;;;;0.90;0.70;;;21.90;52.20;;;;;;4992335;28;20169;-89
2022/03/17 01:26:00;;;;;;;0.97;0.80;;;21.90;52.20;;;;;;4975020;28;20428;-89
2022/03/17 01:28:26;;;;;;;1.00;0.70;;;21.90;52.20;;;;;;4975220;28;20444;-90
2022/03/17 01:30:53;;;;;;;0.93;0.70;;;21.90;52.20;;;;;;4974226;28;20174;-89
2022/03/17 01:33:19;;;;;;;1.20;0.80;;;21.90;52.20;;;;;;4972097;28;20206;-90
2022/03/17 01:35:44;;;;;;;1.27;0.80;;;21.90;52.20;;;;;;4971967;28;20437;-89
2022/03/17 01:38:10;;;;;;;0.93;0.70;;;21.90;52.20;;;;;;4989073;28;20207;-90
2022/03/17 01:40:36;;;;;;;0.80;0.70;;;21.90;52.20;;;;;;4989641;28;20173;-89
2022/03/17 01:43:03;;;;;;;0.87;0.67;;;21.90;52.20;;;;;;4972536;28;20185;-89
2022/03/17 01:45:28;;;;;;;1.00;0.80;;;21.90;52.20;;;;;;4989182;28;20181;-90
2022/03/17 01:47:54;;;;;;;0.90;0.70;;;21.90;52.20;;;;;;4971886;28;20445;-89
2022/03/17 01:50:21;;;;;;;0.90;0.67;;;21.90;52.30;;;;;;4971328;28;20178;-90
2022/03/17 01:52:47;;;;;;;0.90;0.70;;;21.90;52.30;;;;;;4989323;28;20193;-90
2022/03/17 01:55:14;;;;;;;0.90;0.70;;;21.90;52.20;;;;;;4989590;28;20478;-90
2022/03/17 01:57:40;;;;;;;0.90;0.77;;;21.90;52.20;;;;;;4971594;28;20568;-90
2022/03/17 02:00:13;;;;;;;0.80;0.67;;;21.90;52.20;;;;;;4971932;28;20429;-89
2022/03/17 02:02:40;;;;;;;1.00;0.77;;;21.90;52.20;;;;;;4988948;28;20389;-90
2022/03/17 02:05:06;;;;;;;0.90;0.70;;;21.80;52.10;;;;;;4971869;28;20836;-90
2022/03/17 02:07:32;;;;;;;1.50;0.80;;;21.90;52.20;;;;;;4971719;28;20425;-90
2022/03/17 02:09:59;;;;;;;1.10;0.90;;;21.90;52.20;;;;;;4988576;28;20417;-90
2022/03/17 02:15:10;;;;;;;1.10;0.70;;;21.90;52.20;;;;;;4989103;28;20400;-90
2022/03/17 02:20:59;;;;;;;0.93;0.67;;;21.90;52.10;;;;;;4988453;28;20388;-89
2022/03/17 02:26:11;;;;;;;0.80;0.67;;;21.90;52.20;;;;;;4988699;28;20401;-90
2022/03/17 02:28:36;;;;;;;0.90;0.70;;;21.80;52.10;;;;;;4971374;28;20429;-89
2022/03/17 02:31:02;;;;;;;1.00;0.80;;;21.80;52.10;;;;;;4971553;28;20186;-90
2022/03/17 02:33:28;;;;;;;0.93;0.77;;;21.90;52.20;;;;;;4987400;28;20633;-90
2022/03/17 02:35:54;;;;;;;0.80;0.70;;;21.90;52.20;;;;;;4970657;28;20609;-90
2022/03/17 02:38:21;;;;;;;0.97;0.70;;;21.90;52.10;;;;;;4970924;28;20476;-90
2022/03/17 02:40:50;;;;;;;1.20;0.90;;;21.90;52.20;;;;;;4988456;28;20929;-90
2022/03/17 02:43:16;;;;;;;0.90;0.70;;;21.90;52.20;;;;;;4987301;28;20502;-90
2022/03/17 02:45:44;;;;;;;1.10;0.80;;;21.90;52.20;;;;;;4970963;28;20935;-90
2022/03/17 02:48:10;;;;;;;0.90;0.60;;;21.90;52.20;;;;;;4988284;28;20409;-89
2022/03/17 02:50:36;;;;;;;1.00;0.70;;;21.90;52.20;;;;;;4971126;28;20430;-89
2022/03/17 02:53:06;;;;;;;0.97;0.73;;;21.90;52.20;;;;;;4970428;28;20422;-89
2022/03/17 02:55:38;;;;;;;1.10;0.80;;;21.80;52.20;;;;;;4970532;28;20423;-89
2022/03/17 02:58:05;;;;;;;1.00;0.77;;;21.90;52.30;;;;;;4988245;28;20456;-89
2022/03/17 03:00:34;;;;;;;0.90;0.70;;;21.80;52.20;;;;;;4971433;28;20444;-90
2022/03/17 03:03:01;;;;;;;1.00;0.90;;;21.80;52.20;;;;;;4987487;28;20504;-89
2022/03/17 03:05:27;;;;;;;0.90;0.70;;;21.80;52.20;;;;;;4987683;28;20415;-90
2022/03/17 03:07:54;;;;;;;0.90;0.67;;;21.80;52.20;;;;;;4988046;28;20417;-90
2022/03/17 03:10:20;;;;;;;1.00;0.80;;;21.80;52.20;;;;;;4970643;28;20417;-90
2022/03/17 03:12:46;;;;;;;1.20;0.87;;;21.80;52.20;;;;;;4970718;28;20934;-89
2022/03/17 03:15:12;;;;;;;0.90;0.70;;;21.80;52.20;;;;;;4970579;28;20504;-91
2022/03/17 03:17:38;;;;;;;0.90;0.70;;;21.80;52.20;;;;;;4970139;28;20548;-89
2022/03/17 03:20:06;;;;;;;0.90;0.70;;;21.80;52.20;;;;;;4970380;28;20508;-90
2022/03/17 03:22:39;;;;;;;0.83;0.67;;;21.80;52.20;;;;;;4970065;28;20475;-90
2022/03/17 03:25:08;;;;;;;0.80;0.70;;;21.80;52.20;;;;;;4970066;28;20420;-90
2022/03/17 03:27:39;;;;;;;1.07;0.70;;;21.80;52.20;;;;;;4969416;28;20471;-89
2022/03/17 03:30:05;;;;;;;0.97;0.77;;;21.80;52.20;;;;;;4970679;28;20852;-89
2022/03/17 03:32:31;;;;;;;0.90;0.70;;;21.80;52.20;;;;;;4970066;28;20422;-90
2022/03/17 03:34:57;;;;;;;0.90;0.70;;;21.80;52.80;;;;;;4987026;28;20432;-90
2022/03/17 03:37:22;;;;;;;0.90;0.70;;;21.80;52.20;;;;;;4970296;28;20201;-91
2022/03/17 03:39:53;;;;;;;0.90;0.80;;;21.80;52.20;;;;;;4988258;28;20560;-91
2022/03/17 03:42:18;;;;;;;0.93;0.70;;;21.80;52.20;;;;;;4970251;28;20594;-90
2022/03/17 03:44:44;;;;;;;0.87;0.60;;;21.80;52.20;;;;;;4969632;28;20413;-91
2022/03/17 03:47:10;;;;;;;0.90;0.70;;;21.80;52.80;;;;;;4970467;28;20197;-92
2022/03/17 03:49:39;;;;;;;1.00;0.80;;;21.80;52.20;;;;;;4987386;28;20413;-92
2022/03/17 03:52:07;;;;;;;0.90;0.73;;;21.80;52.20;;;;;;4969896;28;20428;-90
2022/03/17 03:54:33;;;;;;;0.80;0.60;;;21.80;52.20;;;;;;4968711;28;20507;-90
2022/03/17 03:56:59;;;;;;;0.90;0.70;;;21.80;52.20;;;;;;4970139;28;20472;-91
2022/03/17 03:59:29;;;;;;;0.97;0.63;;;21.80;52.30;;;;;;4969944;28;20425;-91
2022/03/17 04:01:57;;;;;;;0.90;0.70;;;21.80;52.20;;;;;;4969869;28;20209;-91
2022/03/17 04:04:25;;;;;;;1.00;0.80;;;21.80;52.20;;;;;;4987198;28;20455;-92
2022/03/17 04:06:58;;;;;;;1.00;0.80;;;21.80;52.20;;;;;;4969676;28;20425;-91
2022/03/17 04:09:26;;;;;;;0.90;0.70;;;21.80;52.30;;;;;;4969584;28;20426;-91
2022/03/17 04:11:52;;;;;;;1.00;0.80;;;21.80;52.20;;;;;;4969655;28;20460;-91
2022/03/17 04:14:18;;;;;;;1.00;0.70;;;21.80;52.20;;;;;;4987390;28;20413;-91
2022/03/17 04:16:45;;;;;;;0.90;0.70;;;21.80;52.20;;;;;;4987056;28;20548;-92
2022/03/17 04:19:12;;;;;;;1.10;0.90;;;21.80;52.20;;;;;;4970144;28;20417;-91
2022/03/17 04:21:38;;;;;;;0.90;0.70;;;21.80;52.30;;;;;;4969449;28;20548;-91
2022/03/17 04:24:05;;;;;;;1.00;0.80;;;21.80;52.30;;;;;;4969978;28;20414;-92
2022/03/17 04:26:31;;;;;;;0.80;0.70;;;21.80;52.30;;;;;;4986510;28;20911;-92
2022/03/17 04:28:57;;;;;;;0.90;0.80;;;21.70;52.20;;;;;;4970017;28;20417;-90
2022/03/17 04:31:23;;;;;;;0.87;0.70;;;21.70;52.20;;;;;;4968457;28;20417;-89
2022/03/17 04:37:11;;;;;;;0.80;0.70;;;21.80;52.30;;;;;;4986218;28;20229;-89
2022/03/17 04:39:36;;;;;;;0.90;0.70;;;21.70;52.30;;;;;;4986137;28;20409;-90
2022/03/17 04:42:02;;;;;;;0.90;0.80;;;21.70;52.30;;;;;;4986400;28;20177;-89
2022/03/17 04:44:28;;;;;;;1.00;0.80;;;21.70;52.30;;;;;;4969292;28;20189;-89
2022/03/17 04:46:54;;;;;;;1.20;0.90;;;21.70;52.30;;;;;;4969601;28;20432;-90
2022/03/17 04:49:20;;;;;;;1.20;0.80;;;21.70;52.30;;;;;;4969027;28;20209;-89
2022/03/17 04:51:45;;;;;;;0.80;0.60;;;21.70;52.30;;;;;;4969483;28;20200;-91
2022/03/17 04:54:11;;;;;;;0.90;0.70;;;21.70;52.30;;;;;;4971178;28;20181;-91
2022/03/17 04:56:37;;;;;;;0.90;0.70;;;21.70;52.30;;;;;;4975512;28;20205;-91
2022/03/17 04:59:03;;;;;;;0.90;0.60;;;21.70;52.30;;;;;;4969164;28;20174;-90
2022/03/17 05:01:29;;;;;;;1.17;0.87;;;21.70;52.30;;;;;;4969451;28;20173;-90
2022/03/17 05:03:54;;;;;;;1.23;0.70;;;21.70;52.30;;;;;;4987144;28;20185;-90
2022/03/17 05:06:20;;;;;;;0.90;0.70;;;21.70;52.30;;;;;;4987001;28;20170;-89
2022/03/17 05:08:46;;;;;;;1.33;0.80;;;21.70;52.30;;;;;;4973032;28;20173;-89
2022/03/17 05:11:13;;;;;;;1.37;0.90;;;21.60;52.20;;;;;;4990274;28;20409;-89
2022/03/17 05:13:39;;;;;;;1.00;0.80;;;21.60;52.20;;;;;;4972548;28;20460;-89
2022/03/17 05:16:09;;;;;;;0.83;0.70;;;21.60;52.20;;;;;;4972883;28;20484;-89
2022/03/17 05:18:36;;;;;;;1.00;0.80;;;21.60;52.20;;;;;;4973549;28;20465;-89
2022/03/17 05:21:02;;;;;;;0.80;0.70;;;21.60;52.20;;;;;;4972903;28;20445;-89
2022/03/17 05:23:30;;;;;;;1.20;0.70;;;21.60;52.20;;;;;;4972594;28;20789;-89
2022/03/17 05:25:57;;;;;;;0.90;0.70;;;21.60;52.30;;;;;;4972082;28;20493;-87
2022/03/17 05:28:27;;;;;;;0.80;0.70;;;21.60;52.20;;;;;;4972379;28;20934;-88
2022/03/17 05:30:53;;;;;;;1.07;0.87;;;21.60;52.20;;;;;;4972243;28;20421;-88
2022/03/17 05:33:19;;;;;;;1.00;0.70;;;21.60;52.20;;;;;;4989476;28;20421;-88
2022/03/17 05:39:06;;;;;;;1.13;0.93;;;21.60;52.30;;;;;;4989175;28;20161;-88
2022/03/17 05:41:32;;;;;;;1.50;1.07;;;21.60;52.40;;;;;;4971599;28;20409;-89
2022/03/17 05:43:58;;;;;;;1.10;0.80;;;21.60;52.30;;;;;;4971444;28;20174;-88
2022/03/17 05:46:25;;;;;;;1.07;0.80;;;21.60;52.40;;;;;;4972762;28;20201;-89
2022/03/17 05:48:53;;;;;;;0.90;0.77;;;21.60;52.40;;;;;;4989770;28;20189;-89
2022/03/17 05:51:18;;;;;;;1.20;1.03;;;21.60;52.40;;;;;;4971366;28;20420;-88
2022/03/17 05:53:44;;;;;;;1.00;0.80;;;21.60;52.40;;;;;;4972291;28;20402;-89
2022/03/17 05:56:10;;;;;;;0.93;0.83;;;21.60;52.40;;;;;;4972210;28;20178;-89
2022/03/17 05:58:35;;;;;;;1.00;0.70;;;21.60;52.40;;;;;;4972100;28;20230;-89
2022/03/17 06:01:04;;;;;;;1.03;0.73;;;21.60;52.40;;;;;;4971758;28;20182;-89
2022/03/17 06:03:30;;;;;;;0.90;0.80;;;21.60;52.40;;;;;;4971851;28;20174;-89
2022/03/17 06:05:55;;;;;;;1.23;1.13;;;21.60;52.40;;;;;;4988999;28;20420;-89
2022/03/17 06:08:21;;;;;;;1.10;0.80;;;21.60;52.40;;;;;;4971179;28;20174;-88
2022/03/17 06:10:49;;;;;;;0.90;0.70;;;21.60;52.40;;;;;;4972410;28;20188;-88
2022/03/17 06:13:15;;;;;;;0.80;0.60;;;21.60;52.40;;;;;;4971142;28;20283;-89
2022/03/17 06:15:42;;;;;;;0.97;0.67;;;21.60;52.30;;;;;;4973231;28;20423;-89
2022/03/17 06:18:08;;;;;;;1.00;0.80;;;21.60;52.30;;;;;;4971406;28;20461;-89
2022/03/17 06:20:38;;;;;;;1.00;0.77;;;21.60;52.30;;;;;;4972311;28;20413;-88
2022/03/17 06:23:08;;;;;;;0.90;0.70;;;21.60;52.30;;;;;;4956655;28;20655;-90
2022/03/17 06:25:35;;;;;;;0.97;0.77;;;21.60;52.30;;;;;;4990797;28;20428;-90
2022/03/17 06:28:03;;;;;;;0.90;0.70;;;21.60;52.30;;;;;;4990870;28;20441;-90
2022/03/17 06:30:35;;;;;;;1.10;0.90;;;21.60;52.30;;;;;;4973533;28;20413;-90
2022/03/17 06:33:01;;;;;;;1.10;0.83;;;21.60;52.30;;;;;;4973612;28;20437;-90
2022/03/17 06:35:28;;;;;;;1.20;1.00;;;21.60;52.30;;;;;;4973554;28;20425;-90
2022/03/17 06:37:57;;;;;;;1.10;0.90;;;21.60;52.30;;;;;;4990107;28;20451;-90
2022/03/17 06:40:26;;;;;;;1.40;1.00;;;21.60;52.30;;;;;;4990586;28;20419;-89
2022/03/17 06:42:54;;;;;;;1.50;0.97;;;21.60;52.30;;;;;;4990264;28;20413;-89
2022/03/17 06:45:20;;;;;;;1.13;1.00;;;21.60;52.30;;;;;;4972879;28;20437;-89
2022/03/17 06:47:46;;;;;;;1.10;0.90;;;21.70;52.30;;;;;;4973430;28;20421;-91
2022/03/17 06:50:13;;;;;;;1.10;0.90;;;21.70;52.30;;;;;;4988698;28;20427;-90
2022/03/17 06:52:40;;;;;;;1.00;0.80;;;21.70;52.30;;;;;;4973530;28;20182;-90
2022/03/17 06:55:07;;;;;;;1.10;0.80;;;21.70;52.30;;;;;;4973158;28;20421;-91
2022/03/17 06:57:33;;;;;;;1.57;1.10;;;21.70;52.30;;;;;;4972729;28;20463;-90
2022/03/17 07:00:05;;;;;;;0.90;0.70;;;21.70;52.20;;;;;;4972754;28;20445;-91
2022/03/17 07:02:31;;;;;;;1.00;0.83;;;21.70;52.20;;;;;;4973779;28;20413;-90
2022/03/17 07:04:59;;;;;;;1.10;0.90;;;21.70;52.20;;;;;;4973109;28;20449;-90
2022/03/17 07:07:27;;;;;;;1.07;0.77;;;21.70;52.20;;;;;;4972904;28;20640;-90
2022/03/17 07:09:53;;;;;;;1.20;1.10;;;21.70;52.20;;;;;;4972936;28;20425;-89
2022/03/17 07:12:19;;;;;;;1.10;0.80;;;21.70;52.20;;;;;;4973597;28;20423;-90
2022/03/17 07:14:47;;;;;;;1.33;1.03;;;21.80;52.20;;;;;;4973529;28;20449;-90
2022/03/17 07:17:13;;;;;;;1.10;0.90;;;21.80;52.20;;;;;;4973138;28;20588;-90
2022/03/17 07:19:39;;;;;;;1.00;0.73;;;21.80;52.20;;;;;;4988772;28;20409;-90
2022/03/17 07:22:07;;;;;;;0.97;0.80;;;21.80;52.20;;;;;;4990320;28;20563;-90
2022/03/17 07:24:33;;;;;;;1.10;0.90;;;21.80;52.20;;;;;;4990003;28;20169;-90
2022/03/17 07:26:59;;;;;;;1.10;0.87;;;21.80;52.20;;;;;;4972724;28;20547;-90
2022/03/17 07:29:28;;;;;;;1.03;0.80;;;21.80;52.20;;;;;;4988975;28;20177;-90
2022/03/17 07:31:56;;;;;;;1.23;1.00;;;21.80;52.20;;;;;;4972565;28;20464;-90
2022/03/17 07:34:24;;;;;;;1.10;1.00;;;21.80;52.20;;;;;;4989334;28;20428;-89
2022/03/17 07:36:51;;;;;;;1.17;0.90;;;21.80;52.20;;;;;;4972414;28;20467;-89
2022/03/17 07:39:17;;;;;;;1.13;0.90;;;21.80;52.20;;;;;;4972659;28;20424;-89
2022/03/17 07:41:43;;;;;;;1.00;0.80;;;21.80;52.10;;;;;;4990375;28;20413;-89
2022/03/17 07:44:09;;;;;;;1.00;0.80;;;21.80;52.10;;;;;;4972901;28;20433;-91
2022/03/17 07:46:35;;;;;;;1.20;0.97;;;21.80;52.10;;;;;;4972416;28;20229;-91
2022/03/17 07:49:00;;;;;;;1.20;1.07;;;21.80;52.10;;;;;;4989851;28;20414;-90
2022/03/17 07:51:26;;;;;;;1.13;0.90;;;21.80;52.10;;;;;;4972685;28;20178;-90
2022/03/17 07:53:52;;;;;;;1.00;0.80;;;21.80;52.10;;;;;;4972388;28;20185;-90
2022/03/17 07:59:41;;;;;;;1.20;0.87;;;21.90;52.20;;;;;;4989866;28;20181;-90
2022/03/17 08:02:07;;;;;;;1.10;0.93;;;21.80;52.10;;;;;;4989596;28;20429;-90
2022/03/17 08:04:33;;;;;;;1.00;0.90;;;21.80;52.20;;;;;;4988341;28;20420;-90
2022/03/17 08:07:00;;;;;;;1.10;0.80;;;21.80;52.10;;;;;;4989118;28;20182;-90
2022/03/17 08:09:27;;;;;;;1.07;0.97;;;21.80;52.10;;;;;;4972068;28;20564;-91
2022/03/17 08:11:53;;;;;;;1.00;0.80;;;21.80;52.10;;;;;;4988987;28;20428;-90
2022/03/17 08:14:19;;;;;;;0.90;0.80;;;21.80;52.10;;;;;;4988364;28;20453;-89
2022/03/17 08:16:45;;;;;;;1.23;1.00;;;21.80;52.10;;;;;;4987474;28;20205;-90
2022/03/17 08:19:11;;;;;;;1.50;1.20;;;21.80;52.10;;;;;;4971526;28;20244;-89
2022/03/17 08:21:40;;;;;;;1.93;1.60;;;21.80;52.10;;;;;;4987779;28;20437;-90
2022/03/17 08:24:07;;;;;;;1.40;1.20;;;21.80;52.10;;;;;;4971014;28;20424;-90
2022/03/17 08:26:34;;;;;;;1.20;1.10;;;21.80;52.00;;;;;;4970837;28;20445;-89
2022/03/17 08:29:01;;;;;;;1.47;1.30;;;21.80;52.00;;;;;;4970174;28;20508;-90
2022/03/17 08:31:27;;;;;;;1.03;0.90;;;21.80;52.00;;;;;;4970870;28;20413;-89
2022/03/17 08:33:56;;;;;;;1.50;1.10;;;21.80;52.00;;;;;;4987759;28;20436;-89
2022/03/17 08:36:23;;;;;;;1.10;0.90;;;21.80;52.00;;;;;;4970167;28;20492;-90
2022/03/17 08:38:51;;;;;;;1.30;1.20;;;21.80;52.00;;;;;;4970219;28;20465;-89
2022/03/17 08:41:17;;;;;;;1.27;0.80;;;21.80;52.00;;;;;;4989250;28;20417;-89
2022/03/17 08:43:52;;;;;;;1.00;0.87;;;21.80;52.00;;;;;;4975989;28;20432;-89
2022/03/17 08:49:20;;;;;;;1.40;1.13;;;21.80;52.10;;;;;;4990980;28;20396;-89
2022/03/17 08:51:52;;;;;;;0.90;0.80;;;21.80;52.10;;;;;;4974007;28;20425;-89
2022/03/17 08:54:23;;;;;;;1.10;0.90;;;21.80;52.10;;;;;;4974200;28;20456;-89
2022/03/17 08:56:51;;;;;;;1.03;0.80;;;21.80;52.10;;;;;;4973606;28;20464;-89
2022/03/17 08:59:17;;;;;;;1.10;1.00;;;21.80;52.10;;;;;;4972488;28;20488;-89
2022/03/17 09:05:05;;;;;;;1.20;1.07;;;21.80;52.10;;;;;;4990479;28;20178;-89
2022/03/17 09:07:30;;;;;;;1.00;0.87;;;21.80;52.10;;;;;;4991024;28;20413;-89
2022/03/17 09:09:58;;;;;;;1.07;0.93;;;21.80;52.10;;;;;;4990340;28;20425;-89
2022/03/17 09:12:24;;;;;;;1.30;0.90;;;21.80;52.10;;;;;;4988807;28;20189;-89
2022/03/17 09:14:50;;;;;;;1.10;0.90;;;21.80;52.10;;;;;;4989784;28;20899;-89
2022/03/17 09:17:16;;;;;;;1.20;0.90;;;21.80;52.10;;;;;;4989303;28;20235;-89
2022/03/17 09:19:41;;;;;;;1.30;0.80;;;21.80;52.10;;;;;;4990501;28;20186;-89
2022/03/17 09:22:08;;;;;;;1.30;1.00;;;21.80;52.00;;;;;;4990980;28;20170;-89
2022/03/17 09:24:34;;;;;;;1.10;1.00;;;21.80;52.00;;;;;;4973065;28;20208;-89
2022/03/17 09:26:59;;;;;;;1.27;0.90;;;21.80;52.00;;;;;;4972439;28;20449;-89
2022/03/17 09:29:28;;;;;;;1.27;1.00;;;21.80;52.00;;;;;;4974258;28;20459;-88
2022/03/17 09:31:56;;;;;;;1.57;1.00;;;21.80;52.00;;;;;;4974464;28;20185;-88
2022/03/17 09:34:24;;;;;;;1.30;1.00;;;21.80;52.10;;;;;;4991153;28;20489;-88
2022/03/17 09:36:50;;;;;;;1.00;0.80;;;21.80;52.00;;;;;;4973362;28;20585;-89
2022/03/17 09:42:03;;;;;;;1.10;1.00;;;21.80;52.10;;;;;;4990819;28;20213;-88
2022/03/17 09:44:32;;;;;;;1.10;0.90;;;21.80;52.00;;;;;;4973589;28;20429;-88
2022/03/17 09:46:59;;;;;;;1.20;1.10;;;21.80;52.10;;;;;;4973441;28;20527;-89
2022/03/17 09:49:26;;;;;;;1.10;0.90;;;21.80;52.10;;;;;;4991823;28;20444;-90
2022/03/17 09:51:55;;;;;;;1.20;0.90;;;21.80;52.10;;;;;;4973510;28;20425;-90
2022/03/17 09:54:21;;;;;;;1.00;0.80;;;21.80;52.10;;;;;;4973487;28;20425;-89
2022/03/17 09:56:47;;;;;;;1.10;1.00;;;21.80;52.10;;;;;;4990788;28;20571;-90
2022/03/17 09:59:13;;;;;;;1.20;0.90;;;21.80;52.10;;;;;;4972575;28;20464;-91
2022/03/17 10:01:40;;;;;;;1.00;0.90;;;21.80;52.10;;;;;;4972833;28;20233;-90
2022/03/17 10:04:07;;;;;;;1.13;1.03;;;21.80;52.10;;;;;;4971738;28;20272;-89
2022/03/17 10:06:33;;;;;;;1.30;1.07;;;21.80;52.10;;;;;;4972251;28;20425;-89
2022/03/17 10:09:01;;;;;;;1.00;0.80;;;21.80;52.10;;;;;;4971976;28;20423;-88
2022/03/17 10:11:37;;;;;;;1.23;1.10;;;21.80;52.00;;;;;;4971506;28;20428;-88
2022/03/17 10:14:05;;;;;;;1.40;1.10;;;21.80;52.00;;;;;;4972321;28;20445;-88
2022/03/17 10:16:35;;;;;;;1.00;0.90;;;21.80;52.10;;;;;;4989682;28;20494;-88
2022/03/17 10:19:04;;;;;;;1.20;1.10;;;21.80;52.10;;;;;;4971754;28;20453;-88
2022/03/17 10:21:31;;;;;;;2.30;2.10;;;21.80;52.10;;;;;;4972494;28;20782;-88
2022/03/17 10:24:08;;;;;;;3.47;3.17;;;21.80;52.10;;;;;;4972609;28;20417;-89
2022/03/17 10:26:39;;;;;;;4.47;4.07;;;21.80;52.10;;;;;;4973220;28;20472;-88
2022/03/17 10:29:11;;;;;;;5.60;5.10;;;21.80;52.10;;;;;;4972164;28;20979;-89
2022/03/17 10:32:14;;;;;;;4.57;4.17;;;21.80;52.10;;;;;;4972283;28;20417;-88
2022/03/17 10:34:52;;;;;;;6.03;5.17;;;21.90;52.20;;;;;;4973028;28;20413;-89
2022/03/17 10:37:19;;;;;;;5.50;4.90;;;21.80;52.10;;;;;;4972807;28;20992;-89
2022/03/17 10:39:48;;;;;;;5.77;5.23;;;21.80;52.10;;;;;;4972701;28;20425;-89
2022/03/17 10:42:16;;;;;;;5.17;4.77;;;21.90;52.20;;;;;;4989811;28;20835;-88
2022/03/17 10:44:51;;;;;;;6.10;5.50;;;21.90;52.20;;;;;;4989345;28;20424;-89
2022/03/17 10:47:33;;;;;;;5.50;5.00;;;21.90;52.10;;;;;;4989796;28;20397;-89
2022/03/17 10:50:10;;;;;;;7.77;4.63;;;21.90;52.10;;;;;;4970373;28;20464;-91
2022/03/17 10:53:00;;;;;;;5.47;5.00;;;21.90;52.10;;;;;;4969199;28;20464;-91
2022/03/17 10:55:32;;;;;;;5.80;5.20;;;21.90;52.10;;;;;;4986386;28;20390;-92
2022/03/17 10:58:14;;;;;;;5.67;5.23;;;21.90;52.20;;;;;;4985503;28;20461;-93
2022/03/17 11:00:51;;;;;;;5.37;4.80;;;21.90;52.20;;;;;;4985668;28;20413;-93
2022/03/17 11:03:28;;;;;;;7.73;6.60;;;21.90;52.10;;;;;;4977464;28;20418;-93
2022/03/17 11:05:57;;;;;;;5.23;4.73;;;21.90;52.10;;;;;;4965815;29;20900;-93
2022/03/17 11:08:23;;;;;;;6.60;5.83;;;21.90;52.10;;;;;;4967489;28;20426;-92
2022/03/17 11:10:57;;;;;;;6.93;6.00;;;21.90;52.10;;;;;;4967735;28;20443;-91
2022/03/17 11:13:31;;;;;;;5.93;5.33;;;21.90;52.10;;;;;;4989706;28;20405;-92
2022/03/17 11:16:07;;;;;;;6.77;5.67;;;21.90;52.10;;;;;;4970004;28;20405;-93
2022/03/17 11:18:38;;;;;;;6.80;6.10;;;21.90;52.10;;;;;;4971037;28;20558;-92
2022/03/17 11:21:20;;;;;;;6.30;5.70;;;21.90;52.10;;;;;;4990387;28;20406;-93
2022/03/17 11:23:56;;;;;;;6.37;5.67;;;21.90;52.10;;;;;;4971484;28;20413;-92
2022/03/17 11:26:39;;;;;;;6.60;6.10;;;21.90;52.10;;;;;;4988768;28;20404;-92
2022/03/17 11:29:08;;;;;;;6.63;6.10;;;21.90;52.20;;;;;;4972077;28;20424;-91
2022/03/17 11:32:01;;;;;;;6.83;6.07;;;21.90;52.20;;;;;;4971108;28;20417;-92
2022/03/17 11:34:41;;;;;;;7.87;6.53;;;21.90;52.20;;;;;;4969714;28;20417;-92
2022/03/17 11:37:40;;;;;;;7.00;6.40;;;21.90;52.20;;;;;;4971419;28;20500;-92
2022/03/17 11:40:09;;;;;;;7.63;6.87;;;21.90;52.30;;;;;;4968888;28;20427;-92
2022/03/17 11:43:08;;;;;;;7.30;6.60;;;21.90;52.20;;;;;;4985742;28;20775;-92
2022/03/17 11:45:37;;;;;;;7.20;6.50;;;21.90;52.30;;;;;;4968556;28;20445;-91
2022/03/17 11:48:09;;;;;;;7.67;7.00;;;21.90;52.30;;;;;;4967978;28;20475;-91
2022/03/17 11:50:38;;;;;;;7.60;6.90;;;21.90;52.30;;;;;;4969597;28;20441;-93
2022/03/17 11:53:08;;;;;;;6.93;6.33;;;21.90;52.30;;;;;;4969074;28;20432;-91
2022/03/17 11:55:53;;;;;;;7.87;7.07;;;21.90;52.30;;;;;;4968156;28;20468;-92
2022/03/17 11:58:25;;;;;;;7.23;6.60;;;21.90;52.30;;;;;;4968404;28;20468;-92
2022/03/17 12:01:05;;;;;;;7.40;6.60;;;21.90;52.30;;;;;;4968007;28;20417;-92
2022/03/17 12:03:41;;;;;;;8.73;7.80;;;21.90;52.40;;;;;;4968376;28;20880;-92
2022/03/17 12:06:19;;;;;;;11.13;9.97;;;21.90;52.40;;;;;;4968598;28;20417;-93
2022/03/17 12:15:43;;;;;;;27.00;18.73;;;21.90;52.40;;;;;;4925635;29;20447;-93
2022/03/17 12:18:56;;;;;;;26.00;19.70;;;21.90;52.40;;;;;;4927582;29;20451;-93
2022/03/17 12:22:39;;;;;;;;;;;;;;;;;;;;;
2022/03/17 12:28:25;;;;;;;29.83;21.23;;;21.90;52.50;;;;;;4800464;29;20450;-93
2022/03/17 12:31:06;;;;;;;25.33;20.73;;;21.90;52.50;;;;;;4792893;30;20446;-92
2022/03/17 12:33:46;;;;;;;27.77;21.17;;;21.90;52.50;;;;;;4798543;30;20413;-91
2022/03/17 12:36:14;;;;;;;27.13;21.90;;;21.90;52.50;;;;;;4787043;29;20451;-91
2022/03/17 12:38:50;;;;;;;33.13;22.37;;;22.00;52.50;;;;;;4780240;30;20483;-92
2022/03/17 12:41:18;;;;;;;24.63;19.53;;;22.00;52.50;;;;;;4779749;30;20430;-91
2022/03/17 12:43:49;;;;;;;27.93;20.60;;;22.00;52.50;;;;;;4765322;30;20423;-91
2022/03/17 12:46:25;;;;;;;25.03;21.20;;;22.00;52.50;;;;;;4767883;30;20805;-92
2022/03/17 12:49:06;;;;;;;29.47;21.17;;;22.00;52.50;;;;;;4772229;30;20430;-90
2022/03/17 12:51:44;;;;;;;27.83;19.47;;;22.00;52.40;;;;;;4798730;29;20440;-91
2022/03/17 12:54:13;;;;;;;24.73;19.53;;;22.00;52.40;;;;;;4784297;30;20438;-89
2022/03/17 12:57:00;;;;;;;25.80;20.60;;;22.00;52.40;;;;;;4861435;29;20427;-90
2022/03/17 12:59:28;;;;;;;24.37;19.10;;;22.00;52.40;;;;;;4927664;29;20436;-89
2022/03/17 13:02:00;;;;;;;26.33;20.43;;;22.00;52.40;;;;;;4960427;29;20835;-90
2022/03/17 13:04:35;;;;;;;28.07;19.10;;;22.00;52.40;;;;;;4964961;28;20417;-90
2022/03/17 13:07:00;;;;;;;28.63;20.17;;;22.00;52.40;;;;;;4966617;28;20475;-89
2022/03/17 13:09:30;;;;;;;23.80;19.93;;;22.00;52.40;;;;;;4965159;28;20420;-89
2022/03/17 13:15:16;;;;;;;23.87;18.23;;;22.10;52.50;;;;;;4973716;28;20405;-89
2022/03/17 13:17:49;;;;;;;26.80;18.73;;;22.10;52.50;;;;;;4951899;29;20457;-89
2022/03/17 13:20:22;;;;;;;21.80;18.20;;;22.00;52.40;;;;;;4951327;29;20426;-87
2022/03/17 13:23:07;;;;;;;25.90;20.33;;;22.00;52.40;;;;;;4966500;29;20426;-89
2022/03/17 13:25:35;;;;;;;26.47;18.67;;;22.10;52.50;;;;;;4968427;29;20409;-89
2022/03/17 13:28:08;;;;;;;25.37;18.17;;;22.00;52.40;;;;;;4952100;29;20800;-89
2022/03/17 13:30:37;;;;;;;27.20;19.13;;;22.00;52.40;;;;;;4953417;29;20425;-87
2022/03/17 13:33:06;;;;;;;25.03;17.80;;;22.00;52.40;;;;;;4970173;29;20426;-89
2022/03/17 13:35:34;;;;;;;26.20;19.60;;;22.00;52.40;;;;;;4953808;29;20422;-90
2022/03/17 13:38:06;;;;;;;20.73;17.40;;;22.10;52.40;;;;;;4970774;29;20482;-89